OMA weather

Eppley Airfield
Omaha, Nebraska, United States

Public forecast

Using degrees Fahrenheit for public forecast. Weather courtesy of forecast.io.

Current aviation weather report (METAR) for Eppley Airfield

Retrieved 2019/10/23 02:52 UTC (39 minutes ago):

KOMA 230252Z 14005KT 10SM BKN250 07/03 A2987 RMK AO2 SLP118 T00670028 58003

Aviation forecast (TAF) for Eppley Airfield

Retrieved 2019-10-23 00:27 UTC (3 hours ago):

TAF KOMA 222324Z 2300/2324 29012KT P6SM FEW090 FM230200 18005KT P6SM SKC FM231000 16005KT P6SM BKN070 FM231800 30013G20KT P6SM OVC100